createdAt,value
2023-04-18T00:03:24.326Z,9.3
2023-04-18T00:09:44.060Z,9.3
2023-04-18T00:16:07.130Z,7
2023-04-18T00:22:26.980Z,7
2023-04-18T00:28:50.038Z,6.9
2023-04-18T00:35:09.953Z,6.9
2023-04-18T00:41:32.881Z,5.5
2023-04-18T00:47:53.029Z,5.5
2023-04-18T00:54:16.235Z,4.6
2023-04-18T01:00:36.054Z,4.6
2023-04-18T01:06:58.961Z,9.2
2023-04-18T01:13:19.075Z,9.2
2023-04-18T01:19:42.033Z,4
2023-04-18T01:26:02.106Z,4
2023-04-18T01:32:25.174Z,4.1
2023-04-18T01:38:45.135Z,4.1
2023-04-18T01:45:07.994Z,5.2
2023-04-18T01:51:28.178Z,5.2
2023-04-18T01:57:50.965Z,8.1
2023-04-18T02:04:10.981Z,8.1
2023-04-18T02:10:33.939Z,5.7
2023-04-18T02:16:53.975Z,5.7
2023-04-18T02:23:17.062Z,8.5
2023-04-18T02:29:37.001Z,8.5
2023-04-18T02:36:00.003Z,3.6
2023-04-18T02:42:19.922Z,3.6
2023-04-18T02:48:43.016Z,6.3
2023-04-18T02:55:03.029Z,6.3
2023-04-18T03:01:26.164Z,5.2
2023-04-18T03:07:46.024Z,5.2
2023-04-18T03:23:19.955Z,6.7
2023-04-18T03:29:39.899Z,6.7
2023-04-18T03:36:03.042Z,12.1
2023-04-18T03:42:23.082Z,12.1
2023-04-18T03:48:45.998Z,3.7
2023-04-18T03:55:06.023Z,3.7
2023-04-18T04:01:28.997Z,7.9
2023-04-18T04:07:49.083Z,7.9
2023-04-18T04:14:12.373Z,8.4
2023-04-18T04:20:32.159Z,8.4
2023-04-18T04:26:54.982Z,5.2
2023-04-18T04:33:15.015Z,5.2
2023-04-18T04:39:37.997Z,3.2
2023-04-18T04:45:57.982Z,3.2
2023-04-18T04:52:21.042Z,9.3
2023-04-18T04:58:41.033Z,9.3
2023-04-18T05:05:04.021Z,9.1
2023-04-18T05:11:23.989Z,9.1
2023-04-18T05:17:47.028Z,10
2023-04-18T05:24:06.918Z,10
2023-04-18T05:30:29.927Z,6.3
2023-04-18T05:36:50.061Z,6.3
2023-04-18T05:43:13.118Z,44.8
2023-04-18T05:49:33.048Z,44.8
2023-04-18T05:55:55.981Z,9.9
2023-04-18T06:02:16.017Z,9.9
2023-04-18T06:08:39.098Z,19.3
2023-04-18T06:14:58.966Z,19.3
2023-04-18T06:21:22.046Z,8.2
2023-04-18T06:27:42.008Z,8.2
2023-04-18T06:34:05.054Z,14.6
2023-04-18T06:40:25.051Z,14.6
2023-04-18T06:46:48.050Z,6.8
2023-04-18T06:53:08.087Z,6.8
2023-04-18T06:59:31.002Z,6.7
2023-04-18T07:05:50.915Z,6.7
2023-04-18T07:12:14.159Z,11.5
2023-04-18T07:18:37.798Z,11.5
2023-04-18T07:24:56.959Z,13
2023-04-18T07:31:17.085Z,13
2023-04-18T07:37:39.962Z,12.4
2023-04-18T07:43:59.965Z,12.4
2023-04-18T07:50:23.082Z,7.4
2023-04-18T07:56:43.041Z,7.4
2023-04-18T08:03:06.063Z,5.5
2023-04-18T08:09:26.007Z,5.5
2023-04-18T08:32:14.925Z,2.6
2023-04-18T08:38:38.274Z,4.4
2023-04-18T08:44:58.000Z,4.4
2023-04-18T08:51:21.412Z,5.8
2023-04-18T08:57:41.164Z,5.8
2023-04-18T09:04:04.152Z,3.8
2023-04-18T09:10:24.062Z,3.8
2023-04-18T09:16:47.078Z,7.4
2023-04-18T09:23:06.932Z,7.4
2023-04-18T09:29:29.994Z,4.6
2023-04-18T09:35:49.912Z,4.6
2023-04-18T09:42:13.013Z,2.4
2023-04-18T09:48:33.020Z,2.4
2023-04-18T09:54:55.950Z,4.5
2023-04-18T10:01:16.032Z,4.5
2023-04-18T10:07:38.962Z,4.9
2023-04-18T10:13:59.040Z,4.9
2023-04-18T10:20:21.932Z,3
2023-04-18T10:26:41.946Z,3
2023-04-18T10:33:06.974Z,6.4
2023-04-18T10:39:24.924Z,6.4
2023-04-18T10:45:47.999Z,3.8
2023-04-18T10:52:07.959Z,3.8
2023-04-18T10:58:30.981Z,5.1
2023-04-18T11:04:50.989Z,5.1
2023-04-18T11:11:13.922Z,3.2
2023-04-18T11:17:33.985Z,3.2
2023-04-18T11:23:57.002Z,10.1
2023-04-18T11:30:16.954Z,10.1
2023-04-18T11:36:40.005Z,5.1
2023-04-18T11:43:00.114Z,5.1
2023-04-18T11:49:22.997Z,3.4
2023-04-18T11:55:42.953Z,3.4
2023-04-18T12:02:15.957Z,5.2
2023-04-18T12:08:25.966Z,5.2
2023-04-18T12:14:48.969Z,3.9
2023-04-18T12:21:09.006Z,3.9
2023-04-18T12:27:31.936Z,5.7
2023-04-18T12:33:51.928Z,5.7
2023-04-18T12:40:15.110Z,8.9
2023-04-18T12:46:35.030Z,8.9
2023-04-18T12:52:57.951Z,2.8
2023-04-18T12:59:17.939Z,2.8
2023-04-18T13:05:40.926Z,1.7
2023-04-18T13:12:00.986Z,1.7
2023-04-18T13:18:23.926Z,5.6
2023-04-18T13:24:43.943Z,5.6
2023-04-18T13:31:06.954Z,2.2
2023-04-18T13:37:26.951Z,2.2
2023-04-18T13:43:49.909Z,4.1
2023-04-18T13:59:22.930Z,2.9
2023-04-18T14:05:42.872Z,2.9
2023-04-18T14:12:05.899Z,5.9
2023-04-18T14:18:25.998Z,5.9
2023-04-18T14:24:48.967Z,5.9
2023-04-18T14:31:08.939Z,5.9
2023-04-18T14:37:31.966Z,4.1
2023-04-18T14:43:51.914Z,4.1
2023-04-18T14:50:14.961Z,8.7
2023-04-18T14:56:35.034Z,8.7
2023-04-18T15:02:58.041Z,2.5
2023-04-18T15:09:17.908Z,2.5
2023-04-18T15:15:40.933Z,3
2023-04-18T15:22:00.976Z,3
2023-04-18T15:28:23.955Z,6.3
2023-04-18T15:34:44.009Z,6.3
2023-04-18T15:41:06.934Z,2.7
2023-04-18T15:47:26.918Z,2.7
2023-04-18T15:53:49.976Z,5.6
2023-04-18T16:00:09.911Z,5.6
2023-04-18T16:06:32.914Z,2.7
2023-04-18T16:12:52.962Z,2.7
2023-04-18T16:19:15.909Z,2.1
2023-04-18T16:25:35.929Z,2.1
2023-04-18T16:31:59.051Z,1.7
2023-04-18T16:38:18.959Z,1.7
2023-04-18T16:44:41.947Z,2.6
2023-04-18T16:51:01.935Z,2.6
2023-04-18T16:57:24.971Z,2
2023-04-18T17:03:45.023Z,2
2023-04-18T17:10:09.909Z,2.1
2023-04-18T17:16:27.969Z,2.1
2023-04-18T17:22:50.886Z,4.6
2023-04-18T17:29:10.998Z,4.6
2023-04-18T17:35:33.953Z,4.9
2023-04-18T17:41:53.947Z,4.9
2023-04-18T17:48:16.997Z,2.9
2023-04-18T17:54:36.944Z,2.9
2023-04-18T18:01:00.037Z,3.6
2023-04-18T18:07:19.988Z,3.6
2023-04-18T18:13:42.907Z,3.6
2023-04-18T18:20:02.949Z,3.6
2023-04-18T18:26:26.031Z,4.5
2023-04-18T18:32:46.029Z,4.5
2023-04-18T18:39:08.954Z,2.9
2023-04-18T18:45:29.017Z,2.9
2023-04-18T18:51:52.248Z,1.6
2023-04-18T18:58:12.451Z,1.6
2023-04-18T19:04:35.078Z,4.9
2023-04-18T19:10:54.899Z,4.9
2023-04-18T19:33:43.960Z,6.5
2023-04-18T19:40:06.875Z,6.5
2023-04-18T19:46:27.013Z,6.5
2023-04-18T19:52:50.367Z,3.6
2023-04-18T19:59:09.987Z,3.6
2023-04-18T20:05:33.002Z,2.1
2023-04-18T20:11:52.967Z,2.1
2023-04-18T20:18:16.324Z,2.5
2023-04-18T20:24:35.934Z,2.5
2023-04-18T20:30:59.009Z,3.7
2023-04-18T20:37:18.962Z,3.7
2023-04-18T20:43:41.940Z,2.5
2023-04-18T20:50:01.987Z,2.5
2023-04-18T20:56:24.913Z,3.6
2023-04-18T21:02:45.045Z,3.6
2023-04-18T21:09:08.021Z,2.9
2023-04-18T21:15:27.934Z,2.9
2023-04-18T21:21:50.959Z,3.6
2023-04-18T21:28:10.966Z,3.6
2023-04-18T21:34:33.919Z,5.4
2023-04-18T21:40:53.943Z,5.4
2023-04-18T21:47:16.951Z,5.6
2023-04-18T21:53:36.916Z,5.6
2023-04-18T21:59:59.897Z,5.7
2023-04-18T22:22:56.942Z,7.6
2023-04-18T22:29:16.882Z,7.6
2023-04-18T22:35:39.924Z,7.6
2023-04-18T22:41:59.928Z,7.6
2023-04-18T22:48:23.037Z,2.5
2023-04-18T22:54:42.892Z,2.5
2023-04-18T23:01:06.058Z,3.8
2023-04-18T23:07:25.909Z,3.8
2023-04-18T23:13:49.135Z,7
2023-04-18T23:20:09.023Z,7
2023-04-18T23:26:32.050Z,1.9
2023-04-18T23:32:51.990Z,1.9
2023-04-18T23:39:14.969Z,2.1
2023-04-18T23:45:34.960Z,2.1
2023-04-18T23:51:57.988Z,3.9
2023-04-18T23:58:17.982Z,3.9
